sensor_id;sensor_type;location;lat;lon;timestamp;P1;durP1;ratioP1;P2;durP2;ratioP2
297;SDS011;133;49.626;9.680;2023-07-20T00:01:57;6.80;;;5.20;;
297;SDS011;133;49.626;9.680;2023-07-20T00:04:23;7.27;;;5.20;;
297;SDS011;133;49.626;9.680;2023-07-20T00:06:48;12.47;;;5.23;;
297;SDS011;133;49.626;9.680;2023-07-20T00:09:14;7.10;;;5.93;;
297;SDS011;133;49.626;9.680;2023-07-20T00:11:39;8.90;;;5.80;;
297;SDS011;133;49.626;9.680;2023-07-20T00:14:05;8.90;;;5.30;;
297;SDS011;133;49.626;9.680;2023-07-20T00:16:31;8.20;;;5.53;;
297;SDS011;133;49.626;9.680;2023-07-20T00:18:57;10.30;;;5.57;;
297;SDS011;133;49.626;9.680;2023-07-20T00:21:22;6.10;;;5.40;;
297;SDS011;133;49.626;9.680;2023-07-20T00:23:48;6.17;;;4.90;;
297;SDS011;133;49.626;9.680;2023-07-20T00:26:14;11.07;;;4.93;;
297;SDS011;133;49.626;9.680;2023-07-20T00:28:39;8.07;;;5.23;;
297;SDS011;133;49.626;9.680;2023-07-20T00:31:05;8.07;;;4.97;;
297;SDS011;133;49.626;9.680;2023-07-20T00:33:31;7.97;;;5.30;;
297;SDS011;133;49.626;9.680;2023-07-20T00:35:56;6.63;;;4.90;;
297;SDS011;133;49.626;9.680;2023-07-20T00:38:22;9.30;;;5.50;;
297;SDS011;133;49.626;9.680;2023-07-20T00:40:47;6.77;;;5.27;;
297;SDS011;133;49.626;9.680;2023-07-20T00:43:14;9.70;;;4.90;;
297;SDS011;133;49.626;9.680;2023-07-20T00:45:40;6.10;;;4.87;;
297;SDS011;133;49.626;9.680;2023-07-20T00:48:07;7.87;;;4.40;;
297;SDS011;133;49.626;9.680;2023-07-20T00:50:33;8.50;;;4.87;;
297;SDS011;133;49.626;9.680;2023-07-20T00:53:00;7.80;;;5.10;;
297;SDS011;133;49.626;9.680;2023-07-20T00:55:28;6.17;;;5.27;;
297;SDS011;133;49.626;9.680;2023-07-20T00:57:54;6.53;;;5.13;;
297;SDS011;133;49.626;9.680;2023-07-20T01:00:19;8.07;;;4.30;;
297;SDS011;133;49.626;9.680;2023-07-20T01:02:45;6.03;;;4.50;;
297;SDS011;133;49.626;9.680;2023-07-20T01:05:12;7.50;;;4.97;;
297;SDS011;133;49.626;9.680;2023-07-20T01:07:39;6.97;;;4.70;;
297;SDS011;133;49.626;9.680;2023-07-20T01:10:16;7.60;;;4.33;;
297;SDS011;133;49.626;9.680;2023-07-20T01:13:02;7.60;;;5.20;;
297;SDS011;133;49.626;9.680;2023-07-20T01:15:33;11.50;;;4.87;;
297;SDS011;133;49.626;9.680;2023-07-20T01:17:59;6.33;;;4.27;;
297;SDS011;133;49.626;9.680;2023-07-20T01:20:27;10.63;;;5.00;;
297;SDS011;133;49.626;9.680;2023-07-20T01:23:07;8.03;;;5.03;;
297;SDS011;133;49.626;9.680;2023-07-20T01:31:29;9.53;;;4.40;;
297;SDS011;133;49.626;9.680;2023-07-20T01:33:57;9.77;;;4.80;;
297;SDS011;133;49.626;9.680;2023-07-20T01:36:26;6.40;;;4.93;;
297;SDS011;133;49.626;9.680;2023-07-20T01:38:59;10.60;;;4.53;;
297;SDS011;133;49.626;9.680;2023-07-20T01:41:25;14.47;;;5.57;;
297;SDS011;133;49.626;9.680;2023-07-20T01:43:51;5.83;;;4.50;;
297;SDS011;133;49.626;9.680;2023-07-20T01:46:16;6.20;;;4.50;;
297;SDS011;133;49.626;9.680;2023-07-20T01:48:42;7.17;;;4.37;;
297;SDS011;133;49.626;9.680;2023-07-20T01:51:08;7.93;;;4.53;;
297;SDS011;133;49.626;9.680;2023-07-20T01:53:33;11.17;;;5.13;;
297;SDS011;133;49.626;9.680;2023-07-20T01:55:59;6.80;;;4.00;;
297;SDS011;133;49.626;9.680;2023-07-20T01:58:25;5.77;;;4.73;;
297;SDS011;133;49.626;9.680;2023-07-20T02:00:50;14.37;;;5.20;;
297;SDS011;133;49.626;9.680;2023-07-20T02:03:16;8.40;;;5.00;;
297;SDS011;133;49.626;9.680;2023-07-20T02:05:42;16.70;;;5.17;;
297;SDS011;133;49.626;9.680;2023-07-20T02:08:08;7.10;;;4.70;;
297;SDS011;133;49.626;9.680;2023-07-20T02:10:34;5.50;;;4.27;;
297;SDS011;133;49.626;9.680;2023-07-20T02:13:00;9.57;;;5.03;;
297;SDS011;133;49.626;9.680;2023-07-20T02:15:25;7.17;;;4.70;;
297;SDS011;133;49.626;9.680;2023-07-20T02:17:52;6.57;;;4.70;;
297;SDS011;133;49.626;9.680;2023-07-20T02:20:18;9.03;;;4.67;;
297;SDS011;133;49.626;9.680;2023-07-20T02:22:44;12.70;;;5.20;;
297;SDS011;133;49.626;9.680;2023-07-20T02:25:10;10.73;;;5.17;;
297;SDS011;133;49.626;9.680;2023-07-20T02:27:36;5.30;;;4.27;;
297;SDS011;133;49.626;9.680;2023-07-20T02:30:02;9.90;;;5.03;;
297;SDS011;133;49.626;9.680;2023-07-20T02:32:29;7.83;;;5.03;;
297;SDS011;133;49.626;9.680;2023-07-20T02:34:55;13.27;;;5.07;;
297;SDS011;133;49.626;9.680;2023-07-20T02:37:20;14.10;;;4.80;;
297;SDS011;133;49.626;9.680;2023-07-20T02:39:46;6.30;;;4.53;;
297;SDS011;133;49.626;9.680;2023-07-20T02:42:12;9.10;;;4.90;;
297;SDS011;133;49.626;9.680;2023-07-20T02:44:38;6.97;;;4.83;;
297;SDS011;133;49.626;9.680;2023-07-20T02:47:03;9.70;;;4.70;;
297;SDS011;133;49.626;9.680;2023-07-20T02:49:29;7.20;;;4.77;;
297;SDS011;133;49.626;9.680;2023-07-20T02:51:55;5.30;;;4.73;;
297;SDS011;133;49.626;9.680;2023-07-20T02:54:21;4.50;;;4.20;;
297;SDS011;133;49.626;9.680;2023-07-20T02:56:46;6.80;;;4.90;;
297;SDS011;133;49.626;9.680;2023-07-20T02:59:12;7.10;;;4.50;;
297;SDS011;133;49.626;9.680;2023-07-20T03:01:38;6.07;;;5.00;;
297;SDS011;133;49.626;9.680;2023-07-20T03:04:03;5.00;;;4.60;;
297;SDS011;133;49.626;9.680;2023-07-20T03:06:29;8.37;;;4.77;;
297;SDS011;133;49.626;9.680;2023-07-20T03:08:55;8.43;;;5.33;;
297;SDS011;133;49.626;9.680;2023-07-20T03:11:21;15.67;;;5.03;;
297;SDS011;133;49.626;9.680;2023-07-20T03:13:47;8.77;;;4.77;;
297;SDS011;133;49.626;9.680;2023-07-20T03:16:13;9.30;;;5.43;;
297;SDS011;133;49.626;9.680;2023-07-20T03:18:43;6.10;;;4.90;;
297;SDS011;133;49.626;9.680;2023-07-20T03:21:09;7.13;;;4.47;;
297;SDS011;133;49.626;9.680;2023-07-20T03:23:38;7.87;;;5.43;;
297;SDS011;133;49.626;9.680;2023-07-20T03:26:04;6.63;;;4.40;;
297;SDS011;133;49.626;9.680;2023-07-20T03:28:30;5.30;;;4.50;;
297;SDS011;133;49.626;9.680;2023-07-20T03:30:56;8.17;;;5.10;;
297;SDS011;133;49.626;9.680;2023-07-20T03:33:22;4.80;;;4.43;;
297;SDS011;133;49.626;9.680;2023-07-20T03:35:52;6.73;;;4.80;;
297;SDS011;133;49.626;9.680;2023-07-20T03:38:19;6.97;;;5.13;;
297;SDS011;133;49.626;9.680;2023-07-20T03:40:55;6.33;;;4.37;;
297;SDS011;133;49.626;9.680;2023-07-20T03:43:22;4.70;;;4.47;;
297;SDS011;133;49.626;9.680;2023-07-20T03:45:49;5.93;;;4.60;;
297;SDS011;133;49.626;9.680;2023-07-20T03:48:15;5.63;;;4.60;;
297;SDS011;133;49.626;9.680;2023-07-20T03:50:43;8.70;;;5.07;;
297;SDS011;133;49.626;9.680;2023-07-20T03:53:10;6.63;;;4.40;;
297;SDS011;133;49.626;9.680;2023-07-20T03:55:36;5.10;;;4.63;;
297;SDS011;133;49.626;9.680;2023-07-20T03:58:01;12.43;;;4.90;;
297;SDS011;133;49.626;9.680;2023-07-20T04:00:27;5.30;;;4.50;;
297;SDS011;133;49.626;9.680;2023-07-20T04:02:53;11.33;;;4.33;;
297;SDS011;133;49.626;9.680;2023-07-20T04:05:18;8.20;;;5.33;;
297;SDS011;133;49.626;9.680;2023-07-20T04:07:44;6.20;;;4.53;;
297;SDS011;133;49.626;9.680;2023-07-20T04:10:10;10.57;;;4.37;;
297;SDS011;133;49.626;9.680;2023-07-20T04:12:35;7.27;;;4.90;;
297;SDS011;133;49.626;9.680;2023-07-20T04:15:01;8.73;;;4.40;;
297;SDS011;133;49.626;9.680;2023-07-20T04:17:29;9.00;;;5.37;;
297;SDS011;133;49.626;9.680;2023-07-20T04:19:54;6.43;;;4.40;;
297;SDS011;133;49.626;9.680;2023-07-20T04:22:20;6.43;;;4.47;;
297;SDS011;133;49.626;9.680;2023-07-20T04:24:46;8.03;;;4.50;;
297;SDS011;133;49.626;9.680;2023-07-20T04:27:12;8.13;;;4.60;;
297;SDS011;133;49.626;9.680;2023-07-20T04:29:38;7.03;;;4.50;;
297;SDS011;133;49.626;9.680;2023-07-20T04:32:03;6.77;;;4.87;;
297;SDS011;133;49.626;9.680;2023-07-20T04:34:29;8.63;;;4.93;;
297;SDS011;133;49.626;9.680;2023-07-20T04:36:55;5.43;;;4.97;;
297;SDS011;133;49.626;9.680;2023-07-20T04:39:21;9.03;;;4.93;;
297;SDS011;133;49.626;9.680;2023-07-20T04:41:46;7.03;;;4.27;;
297;SDS011;133;49.626;9.680;2023-07-20T04:44:13;8.23;;;4.70;;
297;SDS011;133;49.626;9.680;2023-07-20T04:46:39;6.77;;;4.73;;
297;SDS011;133;49.626;9.680;2023-07-20T04:49:05;7.80;;;4.70;;
297;SDS011;133;49.626;9.680;2023-07-20T04:51:31;9.50;;;5.00;;
297;SDS011;133;49.626;9.680;2023-07-20T04:53:56;8.40;;;5.10;;
297;SDS011;133;49.626;9.680;2023-07-20T04:56:24;5.77;;;4.90;;
297;SDS011;133;49.626;9.680;2023-07-20T04:58:49;7.90;;;4.80;;
297;SDS011;133;49.626;9.680;2023-07-20T05:01:15;6.60;;;5.10;;
297;SDS011;133;49.626;9.680;2023-07-20T05:03:41;6.73;;;4.67;;
297;SDS011;133;49.626;9.680;2023-07-20T05:06:07;4.93;;;4.67;;
297;SDS011;133;49.626;9.680;2023-07-20T05:08:32;9.33;;;5.23;;
297;SDS011;133;49.626;9.680;2023-07-20T05:10:59;6.90;;;5.00;;
297;SDS011;133;49.626;9.680;2023-07-20T05:13:25;7.53;;;4.87;;
297;SDS011;133;49.626;9.680;2023-07-20T05:15:51;4.93;;;4.50;;
297;SDS011;133;49.626;9.680;2023-07-20T05:18:17;13.73;;;4.70;;
297;SDS011;133;49.626;9.680;2023-07-20T05:20:47;5.07;;;4.60;;
297;SDS011;133;49.626;9.680;2023-07-20T05:23:13;5.83;;;4.80;;
297;SDS011;133;49.626;9.680;2023-07-20T05:25:39;7.83;;;4.67;;
297;SDS011;133;49.626;9.680;2023-07-20T05:28:05;6.07;;;4.77;;
297;SDS011;133;49.626;9.680;2023-07-20T05:30:31;12.03;;;5.10;;
297;SDS011;133;49.626;9.680;2023-07-20T05:32:57;4.73;;;4.43;;
297;SDS011;133;49.626;9.680;2023-07-20T05:35:22;8.30;;;5.20;;
297;SDS011;133;49.626;9.680;2023-07-20T05:37:48;9.80;;;4.70;;
297;SDS011;133;49.626;9.680;2023-07-20T05:40:14;11.00;;;4.90;;
297;SDS011;133;49.626;9.680;2023-07-20T05:42:43;9.07;;;4.77;;
297;SDS011;133;49.626;9.680;2023-07-20T05:45:14;8.43;;;4.80;;
297;SDS011;133;49.626;9.680;2023-07-20T05:47:40;8.13;;;4.70;;
297;SDS011;133;49.626;9.680;2023-07-20T05:50:06;6.67;;;4.83;;
297;SDS011;133;49.626;9.680;2023-07-20T05:52:32;6.67;;;5.50;;
297;SDS011;133;49.626;9.680;2023-07-20T05:54:58;8.33;;;4.77;;
297;SDS011;133;49.626;9.680;2023-07-20T05:57:23;6.90;;;4.70;;
297;SDS011;133;49.626;9.680;2023-07-20T05:59:49;9.77;;;5.20;;
297;SDS011;133;49.626;9.680;2023-07-20T06:02:15;7.00;;;4.90;;
297;SDS011;133;49.626;9.680;2023-07-20T06:04:41;5.53;;;4.63;;
297;SDS011;133;49.626;9.680;2023-07-20T06:07:06;7.17;;;4.73;;
297;SDS011;133;49.626;9.680;2023-07-20T06:09:35;7.00;;;4.50;;
297;SDS011;133;49.626;9.680;2023-07-20T06:12:01;5.13;;;4.17;;
297;SDS011;133;49.626;9.680;2023-07-20T06:14:26;18.40;;;5.10;;
297;SDS011;133;49.626;9.680;2023-07-20T06:16:52;8.53;;;4.90;;
297;SDS011;133;49.626;9.680;2023-07-20T06:19:18;7.87;;;4.60;;
297;SDS011;133;49.626;9.680;2023-07-20T06:21:43;4.87;;;4.17;;
297;SDS011;133;49.626;9.680;2023-07-20T06:24:09;5.30;;;4.50;;
297;SDS011;133;49.626;9.680;2023-07-20T06:26:35;6.03;;;4.57;;
297;SDS011;133;49.626;9.680;2023-07-20T06:29:05;11.07;;;4.73;;
297;SDS011;133;49.626;9.680;2023-07-20T06:31:31;7.30;;;4.47;;
297;SDS011;133;49.626;9.680;2023-07-20T06:33:58;8.00;;;4.17;;
297;SDS011;133;49.626;9.680;2023-07-20T06:36:23;6.70;;;4.93;;
297;SDS011;133;49.626;9.680;2023-07-20T06:38:51;5.83;;;4.23;;
297;SDS011;133;49.626;9.680;2023-07-20T06:41:16;9.60;;;4.50;;
297;SDS011;133;49.626;9.680;2023-07-20T06:43:42;7.57;;;4.20;;
297;SDS011;133;49.626;9.680;2023-07-20T06:46:08;6.13;;;4.57;;
297;SDS011;133;49.626;9.680;2023-07-20T06:48:33;9.00;;;4.20;;
297;SDS011;133;49.626;9.680;2023-07-20T06:50:59;10.00;;;4.63;;
297;SDS011;133;49.626;9.680;2023-07-20T06:53:25;5.73;;;4.17;;
297;SDS011;133;49.626;9.680;2023-07-20T06:55:50;6.30;;;4.70;;
297;SDS011;133;49.626;9.680;2023-07-20T06:58:16;12.67;;;4.60;;
297;SDS011;133;49.626;9.680;2023-07-20T07:00:42;8.30;;;4.20;;
297;SDS011;133;49.626;9.680;2023-07-20T07:03:08;6.63;;;4.33;;
297;SDS011;133;49.626;9.680;2023-07-20T07:05:37;7.57;;;4.00;;
297;SDS011;133;49.626;9.680;2023-07-20T07:08:03;5.40;;;3.93;;
297;SDS011;133;49.626;9.680;2023-07-20T07:10:29;6.53;;;4.00;;
297;SDS011;133;49.626;9.680;2023-07-20T07:12:55;11.40;;;3.93;;
297;SDS011;133;49.626;9.680;2023-07-20T07:15:21;6.87;;;4.27;;
297;SDS011;133;49.626;9.680;2023-07-20T07:17:46;6.00;;;4.40;;
297;SDS011;133;49.626;9.680;2023-07-20T07:20:13;6.07;;;3.67;;
297;SDS011;133;49.626;9.680;2023-07-20T07:22:38;5.13;;;3.10;;
297;SDS011;133;49.626;9.680;2023-07-20T07:25:04;4.40;;;3.40;;
297;SDS011;133;49.626;9.680;2023-07-20T07:27:30;4.40;;;3.47;;
297;SDS011;133;49.626;9.680;2023-07-20T07:29:55;5.80;;;3.43;;
297;SDS011;133;49.626;9.680;2023-07-20T07:32:21;4.90;;;3.43;;
297;SDS011;133;49.626;9.680;2023-07-20T07:34:47;5.00;;;3.37;;
297;SDS011;133;49.626;9.680;2023-07-20T07:37:13;9.03;;;3.57;;
297;SDS011;133;49.626;9.680;2023-07-20T07:39:39;4.13;;;3.13;;
297;SDS011;133;49.626;9.680;2023-07-20T07:42:05;7.90;;;3.37;;
297;SDS011;133;49.626;9.680;2023-07-20T07:44:31;5.63;;;3.30;;
297;SDS011;133;49.626;9.680;2023-07-20T07:46:56;4.37;;;3.37;;
297;SDS011;133;49.626;9.680;2023-07-20T07:49:22;5.30;;;3.17;;
297;SDS011;133;49.626;9.680;2023-07-20T07:51:48;7.63;;;3.30;;
297;SDS011;133;49.626;9.680;2023-07-20T07:54:14;5.30;;;3.80;;
297;SDS011;133;49.626;9.680;2023-07-20T07:56:39;5.60;;;2.90;;
297;SDS011;133;49.626;9.680;2023-07-20T07:59:06;5.47;;;2.73;;
297;SDS011;133;49.626;9.680;2023-07-20T08:01:32;4.47;;;2.80;;
297;SDS011;133;49.626;9.680;2023-07-20T08:03:57;4.37;;;3.00;;
297;SDS011;133;49.626;9.680;2023-07-20T08:06:23;3.87;;;2.70;;
297;SDS011;133;49.626;9.680;2023-07-20T08:08:49;3.83;;;3.03;;
297;SDS011;133;49.626;9.680;2023-07-20T08:11:15;2.83;;;2.63;;
297;SDS011;133;49.626;9.680;2023-07-20T08:13:42;5.10;;;3.07;;
297;SDS011;133;49.626;9.680;2023-07-20T08:16:08;3.70;;;2.63;;
297;SDS011;133;49.626;9.680;2023-07-20T08:18:34;5.27;;;3.10;;
297;SDS011;133;49.626;9.680;2023-07-20T08:21:00;3.20;;;3.07;;
297;SDS011;133;49.626;9.680;2023-07-20T08:23:25;3.83;;;3.27;;
297;SDS011;133;49.626;9.680;2023-07-20T08:25:52;5.47;;;2.73;;
297;SDS011;133;49.626;9.680;2023-07-20T08:28:18;2.57;;;2.37;;
297;SDS011;133;49.626;9.680;2023-07-20T08:30:48;3.57;;;2.73;;
297;SDS011;133;49.626;9.680;2023-07-20T08:33:14;4.07;;;3.87;;
297;SDS011;133;49.626;9.680;2023-07-20T08:35:44;3.70;;;2.63;;
297;SDS011;133;49.626;9.680;2023-07-20T08:38:10;2.80;;;2.60;;
297;SDS011;133;49.626;9.680;2023-07-20T08:40:40;3.67;;;3.10;;
297;SDS011;133;49.626;9.680;2023-07-20T08:43:06;3.00;;;2.60;;
297;SDS011;133;49.626;9.680;2023-07-20T08:45:33;3.03;;;2.67;;
297;SDS011;133;49.626;9.680;2023-07-20T08:48:00;5.50;;;3.10;;
297;SDS011;133;49.626;9.680;2023-07-20T08:50:28;5.17;;;2.70;;
297;SDS011;133;49.626;9.680;2023-07-20T08:52:56;3.13;;;2.30;;
297;SDS011;133;49.626;9.680;2023-07-20T08:55:24;4.40;;;2.83;;
297;SDS011;133;49.626;9.680;2023-07-20T08:57:57;4.43;;;3.10;;
297;SDS011;133;49.626;9.680;2023-07-20T09:00:24;3.17;;;2.73;;
297;SDS011;133;49.626;9.680;2023-07-20T09:02:51;2.60;;;2.40;;
297;SDS011;133;49.626;9.680;2023-07-20T09:05:18;4.73;;;2.47;;
297;SDS011;133;49.626;9.680;2023-07-20T09:07:48;2.67;;;2.47;;
297;SDS011;133;49.626;9.680;2023-07-20T09:10:14;3.63;;;2.90;;
297;SDS011;133;49.626;9.680;2023-07-20T09:12:40;3.47;;;2.80;;
297;SDS011;133;49.626;9.680;2023-07-20T09:15:11;5.97;;;3.03;;
297;SDS011;133;49.626;9.680;2023-07-20T09:17:37;3.23;;;2.83;;
297;SDS011;133;49.626;9.680;2023-07-20T09:20:06;5.50;;;3.30;;
297;SDS011;133;49.626;9.680;2023-07-20T09:22:35;3.20;;;2.80;;
297;SDS011;133;49.626;9.680;2023-07-20T09:25:14;5.20;;;2.90;;
297;SDS011;133;49.626;9.680;2023-07-20T09:27:45;3.87;;;3.03;;
297;SDS011;133;49.626;9.680;2023-07-20T09:30:13;4.47;;;3.10;;
297;SDS011;133;49.626;9.680;2023-07-20T09:32:43;3.40;;;3.17;;
297;SDS011;133;49.626;9.680;2023-07-20T09:35:14;3.83;;;3.20;;
297;SDS011;133;49.626;9.680;2023-07-20T09:40:37;3.27;;;3.07;;
297;SDS011;133;49.626;9.680;2023-07-20T09:43:04;3.07;;;2.87;;
297;SDS011;133;49.626;9.680;2023-07-20T09:45:40;2.80;;;2.60;;
297;SDS011;133;49.626;9.680;2023-07-20T09:48:07;2.80;;;2.60;;
297;SDS011;133;49.626;9.680;2023-07-20T09:50:39;3.20;;;2.40;;
297;SDS011;133;49.626;9.680;2023-07-20T09:53:07;3.20;;;2.43;;
297;SDS011;133;49.626;9.680;2023-07-20T09:55:36;3.10;;;2.43;;
297;SDS011;133;49.626;9.680;2023-07-20T09:58:03;3.67;;;2.60;;
297;SDS011;133;49.626;9.680;2023-07-20T10:00:32;2.70;;;2.47;;
297;SDS011;133;49.626;9.680;2023-07-20T10:03:00;2.80;;;2.60;;
297;SDS011;133;49.626;9.680;2023-07-20T10:05:37;3.77;;;2.97;;
297;SDS011;133;49.626;9.680;2023-07-20T10:08:08;3.50;;;2.90;;
297;SDS011;133;49.626;9.680;2023-07-20T10:10:48;3.70;;;3.30;;
297;SDS011;133;49.626;9.680;2023-07-20T10:13:18;3.13;;;2.70;;
297;SDS011;133;49.626;9.680;2023-07-20T10:15:50;3.10;;;2.90;;
297;SDS011;133;49.626;9.680;2023-07-20T10:21:03;3.53;;;3.00;;
297;SDS011;133;49.626;9.680;2023-07-20T10:23:32;5.13;;;2.90;;
297;SDS011;133;49.626;9.680;2023-07-20T10:25:59;2.80;;;2.60;;
297;SDS011;133;49.626;9.680;2023-07-20T10:28:26;2.80;;;2.60;;
297;SDS011;133;49.626;9.680;2023-07-20T10:30:53;4.20;;;2.83;;
297;SDS011;133;49.626;9.680;2023-07-20T10:33:19;4.13;;;2.83;;
297;SDS011;133;49.626;9.680;2023-07-20T10:35:52;4.40;;;2.93;;
297;SDS011;133;49.626;9.680;2023-07-20T10:38:38;3.60;;;2.77;;
297;SDS011;133;49.626;9.680;2023-07-20T10:43:49;3.93;;;2.67;;
297;SDS011;133;49.626;9.680;2023-07-20T10:46:33;2.80;;;2.60;;
297;SDS011;133;49.626;9.680;2023-07-20T10:49:10;2.50;;;2.30;;
297;SDS011;133;49.626;9.680;2023-07-20T10:51:38;2.60;;;2.40;;
297;SDS011;133;49.626;9.680;2023-07-20T10:56:44;2.73;;;2.53;;
297;SDS011;133;49.626;9.680;2023-07-20T11:01:55;4.27;;;2.70;;
297;SDS011;133;49.626;9.680;2023-07-20T11:04:44;3.67;;;2.60;;
297;SDS011;133;49.626;9.680;2023-07-20T11:07:15;2.90;;;2.70;;
297;SDS011;133;49.626;9.680;2023-07-20T11:09:41;3.07;;;2.87;;
297;SDS011;133;49.626;9.680;2023-07-20T11:12:11;2.70;;;2.50;;
297;SDS011;133;49.626;9.680;2023-07-20T11:14:42;2.90;;;2.57;;
297;SDS011;133;49.626;9.680;2023-07-20T11:17:12;2.83;;;2.63;;
297;SDS011;133;49.626;9.680;2023-07-20T11:19:39;2.70;;;2.50;;
297;SDS011;133;49.626;9.680;2023-07-20T11:22:06;3.03;;;2.70;;
297;SDS011;133;49.626;9.680;2023-07-20T11:24:39;2.93;;;2.73;;
297;SDS011;133;49.626;9.680;2023-07-20T11:27:05;3.17;;;2.60;;
297;SDS011;133;49.626;9.680;2023-07-20T11:29:31;2.90;;;2.70;;
297;SDS011;133;49.626;9.680;2023-07-20T11:31:57;3.37;;;2.70;;
297;SDS011;133;49.626;9.680;2023-07-20T11:34:26;2.93;;;2.60;;
297;SDS011;133;49.626;9.680;2023-07-20T11:36:52;2.60;;;2.40;;
297;SDS011;133;49.626;9.680;2023-07-20T11:39:21;2.73;;;2.30;;
297;SDS011;133;49.626;9.680;2023-07-20T11:41:48;2.83;;;2.63;;
297;SDS011;133;49.626;9.680;2023-07-20T11:44:16;6.50;;;2.90;;
297;SDS011;133;49.626;9.680;2023-07-20T11:46:43;3.90;;;2.93;;
297;SDS011;133;49.626;9.680;2023-07-20T11:49:12;3.57;;;2.90;;
297;SDS011;133;49.626;9.680;2023-07-20T11:51:38;3.63;;;2.87;;
297;SDS011;133;49.626;9.680;2023-07-20T11:54:08;5.63;;;2.90;;
297;SDS011;133;49.626;9.680;2023-07-20T11:56:35;3.00;;;2.80;;
297;SDS011;133;49.626;9.680;2023-07-20T11:59:00;3.60;;;2.57;;
297;SDS011;133;49.626;9.680;2023-07-20T12:01:28;2.70;;;2.50;;
297;SDS011;133;49.626;9.680;2023-07-20T12:03:56;2.60;;;2.40;;
297;SDS011;133;49.626;9.680;2023-07-20T12:06:27;3.63;;;2.60;;
297;SDS011;133;49.626;9.680;2023-07-20T12:08:57;3.10;;;2.80;;
297;SDS011;133;49.626;9.680;2023-07-20T12:11:42;2.80;;;2.60;;
297;SDS011;133;49.626;9.680;2023-07-20T12:14:09;2.70;;;2.50;;
297;SDS011;133;49.626;9.680;2023-07-20T12:16:36;3.03;;;2.40;;
297;SDS011;133;49.626;9.680;2023-07-20T12:19:04;2.87;;;2.67;;
297;SDS011;133;49.626;9.680;2023-07-20T12:21:31;2.80;;;2.60;;
297;SDS011;133;49.626;9.680;2023-07-20T12:23:59;2.63;;;2.43;;
297;SDS011;133;49.626;9.680;2023-07-20T12:26:25;2.60;;;2.40;;
297;SDS011;133;49.626;9.680;2023-07-20T12:28:53;2.93;;;2.73;;
297;SDS011;133;49.626;9.680;2023-07-20T12:31:19;2.80;;;2.60;;
297;SDS011;133;49.626;9.680;2023-07-20T12:33:48;3.03;;;2.53;;
297;SDS011;133;49.626;9.680;2023-07-20T12:36:14;2.53;;;2.33;;
297;SDS011;133;49.626;9.680;2023-07-20T12:38:40;2.80;;;2.60;;
297;SDS011;133;49.626;9.680;2023-07-20T12:41:07;2.80;;;2.60;;
297;SDS011;133;49.626;9.680;2023-07-20T12:43:34;2.50;;;2.30;;
297;SDS011;133;49.626;9.680;2023-07-20T12:46:00;3.10;;;2.53;;
297;SDS011;133;49.626;9.680;2023-07-20T12:48:26;5.07;;;2.70;;
297;SDS011;133;49.626;9.680;2023-07-20T12:50:52;3.00;;;2.30;;
297;SDS011;133;49.626;9.680;2023-07-20T12:53:17;2.53;;;2.33;;
297;SDS011;133;49.626;9.680;2023-07-20T12:55:46;3.30;;;2.60;;
297;SDS011;133;49.626;9.680;2023-07-20T12:58:12;4.20;;;2.30;;
297;SDS011;133;49.626;9.680;2023-07-20T13:00:38;4.20;;;2.97;;
297;SDS011;133;49.626;9.680;2023-07-20T13:03:04;2.30;;;2.10;;
297;SDS011;133;49.626;9.680;2023-07-20T13:05:32;2.60;;;2.40;;
297;SDS011;133;49.626;9.680;2023-07-20T13:08:01;2.30;;;2.10;;
297;SDS011;133;49.626;9.680;2023-07-20T13:10:27;2.20;;;2.00;;
297;SDS011;133;49.626;9.680;2023-07-20T13:12:54;2.17;;;2.00;;
297;SDS011;133;49.626;9.680;2023-07-20T13:15:20;2.30;;;2.10;;
297;SDS011;133;49.626;9.680;2023-07-20T13:17:45;2.50;;;2.30;;
297;SDS011;133;49.626;9.680;2023-07-20T13:20:12;2.70;;;2.50;;
297;SDS011;133;49.626;9.680;2023-07-20T13:22:38;4.13;;;2.57;;
297;SDS011;133;49.626;9.680;2023-07-20T13:25:05;2.47;;;2.33;;
297;SDS011;133;49.626;9.680;2023-07-20T13:27:32;2.87;;;2.60;;
297;SDS011;133;49.626;9.680;2023-07-20T13:29:58;2.40;;;2.20;;
297;SDS011;133;49.626;9.680;2023-07-20T13:32:25;2.70;;;2.50;;
297;SDS011;133;49.626;9.680;2023-07-20T13:34:52;3.00;;;2.40;;
297;SDS011;133;49.626;9.680;2023-07-20T13:37:17;2.80;;;2.50;;
297;SDS011;133;49.626;9.680;2023-07-20T13:39:43;2.70;;;2.50;;
297;SDS011;133;49.626;9.680;2023-07-20T13:42:09;3.03;;;2.40;;
297;SDS011;133;49.626;9.680;2023-07-20T13:44:37;2.57;;;2.27;;
297;SDS011;133;49.626;9.680;2023-07-20T13:47:03;2.47;;;2.27;;
297;SDS011;133;49.626;9.680;2023-07-20T13:49:32;2.40;;;2.23;;
297;SDS011;133;49.626;9.680;2023-07-20T13:51:58;3.30;;;2.53;;
297;SDS011;133;49.626;9.680;2023-07-20T13:54:24;2.60;;;2.40;;
297;SDS011;133;49.626;9.680;2023-07-20T13:56:50;2.80;;;2.30;;
297;SDS011;133;49.626;9.680;2023-07-20T13:59:16;2.93;;;2.53;;
297;SDS011;133;49.626;9.680;2023-07-20T14:01:45;2.63;;;2.43;;
297;SDS011;133;49.626;9.680;2023-07-20T14:04:12;2.77;;;2.57;;
297;SDS011;133;49.626;9.680;2023-07-20T14:06:37;3.83;;;2.57;;
297;SDS011;133;49.626;9.680;2023-07-20T14:09:03;2.70;;;2.50;;
297;SDS011;133;49.626;9.680;2023-07-20T14:11:29;2.90;;;2.70;;
297;SDS011;133;49.626;9.680;2023-07-20T14:13:55;3.60;;;2.80;;
297;SDS011;133;49.626;9.680;2023-07-20T14:16:23;2.60;;;2.30;;
297;SDS011;133;49.626;9.680;2023-07-20T14:18:49;4.07;;;2.40;;
297;SDS011;133;49.626;9.680;2023-07-20T14:21:16;3.87;;;2.63;;
297;SDS011;133;49.626;9.680;2023-07-20T14:23:44;3.07;;;2.30;;
297;SDS011;133;49.626;9.680;2023-07-20T14:26:11;2.63;;;2.43;;
297;SDS011;133;49.626;9.680;2023-07-20T14:28:47;3.50;;;2.40;;
297;SDS011;133;49.626;9.680;2023-07-20T14:31:13;2.80;;;2.60;;
297;SDS011;133;49.626;9.680;2023-07-20T14:33:39;2.80;;;2.63;;
297;SDS011;133;49.626;9.680;2023-07-20T14:36:05;2.70;;;2.50;;
297;SDS011;133;49.626;9.680;2023-07-20T14:38:31;2.83;;;2.63;;
297;SDS011;133;49.626;9.680;2023-07-20T14:40:58;2.60;;;2.40;;
297;SDS011;133;49.626;9.680;2023-07-20T14:43:24;3.60;;;2.77;;
297;SDS011;133;49.626;9.680;2023-07-20T14:45:50;2.80;;;2.53;;
297;SDS011;133;49.626;9.680;2023-07-20T14:48:15;3.00;;;2.80;;
297;SDS011;133;49.626;9.680;2023-07-20T14:50:41;4.77;;;2.60;;
297;SDS011;133;49.626;9.680;2023-07-20T14:53:10;2.93;;;2.73;;
297;SDS011;133;49.626;9.680;2023-07-20T14:55:37;3.27;;;2.77;;
297;SDS011;133;49.626;9.680;2023-07-20T14:58:03;5.33;;;2.90;;
297;SDS011;133;49.626;9.680;2023-07-20T15:00:29;5.50;;;2.90;;
297;SDS011;133;49.626;9.680;2023-07-20T15:02:55;2.97;;;2.77;;
297;SDS011;133;49.626;9.680;2023-07-20T15:05:22;3.30;;;2.90;;
297;SDS011;133;49.626;9.680;2023-07-20T15:07:48;2.80;;;2.60;;
297;SDS011;133;49.626;9.680;2023-07-20T15:10:15;2.60;;;2.50;;
297;SDS011;133;49.626;9.680;2023-07-20T15:12:40;3.00;;;2.50;;
297;SDS011;133;49.626;9.680;2023-07-20T15:17:34;2.90;;;2.60;;
297;SDS011;133;49.626;9.680;2023-07-20T15:20:01;2.87;;;2.67;;
297;SDS011;133;49.626;9.680;2023-07-20T15:22:29;2.73;;;2.57;;
297;SDS011;133;49.626;9.680;2023-07-20T15:24:58;5.70;;;2.40;;
297;SDS011;133;49.626;9.680;2023-07-20T15:27:25;5.50;;;2.47;;
297;SDS011;133;49.626;9.680;2023-07-20T15:29:51;3.33;;;2.73;;
297;SDS011;133;49.626;9.680;2023-07-20T15:32:20;5.67;;;2.97;;
297;SDS011;133;49.626;9.680;2023-07-20T15:34:46;4.00;;;2.80;;
297;SDS011;133;49.626;9.680;2023-07-20T15:37:12;4.00;;;3.00;;
297;SDS011;133;49.626;9.680;2023-07-20T15:39:38;3.97;;;2.50;;
297;SDS011;133;49.626;9.680;2023-07-20T15:42:04;2.90;;;2.50;;
297;SDS011;133;49.626;9.680;2023-07-20T15:44:31;2.63;;;2.47;;
297;SDS011;133;49.626;9.680;2023-07-20T15:46:57;3.80;;;2.80;;
297;SDS011;133;49.626;9.680;2023-07-20T15:49:23;2.73;;;2.57;;
297;SDS011;133;49.626;9.680;2023-07-20T15:51:52;3.30;;;2.57;;
297;SDS011;133;49.626;9.680;2023-07-20T15:54:21;5.63;;;2.70;;
297;SDS011;133;49.626;9.680;2023-07-20T15:56:47;2.60;;;2.40;;
297;SDS011;133;49.626;9.680;2023-07-20T15:59:14;2.73;;;2.50;;
297;SDS011;133;49.626;9.680;2023-07-20T16:01:41;3.20;;;2.60;;
297;SDS011;133;49.626;9.680;2023-07-20T16:04:07;2.90;;;2.70;;
297;SDS011;133;49.626;9.680;2023-07-20T16:06:33;2.87;;;2.67;;